Pantodynamos — SVAG9 — position and weather

sailwx.info

Track history (hours):
 
Tides and Currents Weather Stations Pressure Air Temp Water Temp Dewpoint Dewpoint Depression Visibility Wind Speed Wind Dir Waves Ship Positions

Pantodynamos

Last reported at 2017-Sep-19 08:32 UTC. Time now 2017-Sep-21 10:41 UTC.
Position N 38°07' E 022°46'.

Length 89 m; draft 4 m.

MMSI: 241296000.

Date/timePositionNaut miles runAvg speedWind from/ knotsBaromVisibWave heightAir tempDewpointWater temp
2017-Sep-19 08:32N 38°07' E 022°46'19 6.2
2017-Sep-19 05:27N 37°54' E 023°04'4 7.3
2017-Sep-19 04:55N 37°53' E 023°08'4 7.1
2017-Sep-19 04:25N 37°52' E 023°13'3 7.0
2017-Sep-19 03:59N 37°52' E 023°17'3 7.0
2017-Sep-19 03:30N 37°51' E 023°21'4 7.4
2017-Sep-19 03:00N 37°50' E 023°25'4 7.9
2017-Sep-19 02:30N 37°50' E 023°30'4 7.7
2017-Sep-19 02:00N 37°50' E 023°35'3 6.5
2017-Sep-19 01:30N 37°50' E 023°39'4 7.5
2017-Sep-19 01:00N 37°46' E 023°41'4 7.5
2017-Sep-19 00:30N 37°43' E 023°44'4 7.5
2017-Sep-19 00:00N 37°40' E 023°47'5 7.7
2017-Sep-18 23:23N 37°38' E 023°53'  
2017-Sep-16 18:49N 38°11' E 024°07'3 6.8
2017-Sep-16 18:25N 38°09' E 024°09'5 6.9
2017-Sep-16 17:44N 38°05' E 024°11'2 7.2
2017-Sep-16 17:30N 38°03' E 024°11'  
Track history (hours):
 
Tides and Currents Weather Stations Pressure Air Temp Water Temp Dewpoint Dewpoint Depression Visibility Wind Speed Wind Dir Waves Ship Positions

Pantodynamos

Last reported at 2017-Sep-19 08:32 UTC. Time now 2017-Sep-21 10:41 UTC.
Position N 38°07' E 022°46'.

Length 89 m; draft 4 m.

MMSI: 241296000.

Date/timePositionNaut miles runAvg speedWind from/ knotsBaromVisibWave heightAir tempDewpointWater temp
2017-Sep-19 08:32N 38°07' E 022°46'19 6.2
2017-Sep-19 05:27N 37°54' E 023°04'4 7.3
2017-Sep-19 04:55N 37°53' E 023°08'4 7.1
2017-Sep-19 04:25N 37°52' E 023°13'3 7.0
2017-Sep-19 03:59N 37°52' E 023°17'3 7.0
2017-Sep-19 03:30N 37°51' E 023°21'4 7.4
2017-Sep-19 03:00N 37°50' E 023°25'4 7.9
2017-Sep-19 02:30N 37°50' E 023°30'4 7.7
2017-Sep-19 02:00N 37°50' E 023°35'3 6.5
2017-Sep-19 01:30N 37°50' E 023°39'4 7.5
2017-Sep-19 01:00N 37°46' E 023°41'4 7.5
2017-Sep-19 00:30N 37°43' E 023°44'4 7.5
2017-Sep-19 00:00N 37°40' E 023°47'5 7.7
2017-Sep-18 23:23N 37°38' E 023°53'  
2017-Sep-16 18:49N 38°11' E 024°07'3 6.8
2017-Sep-16 18:25N 38°09' E 024°09'5 6.9
2017-Sep-16 17:44N 38°05' E 024°11'2 7.2
2017-Sep-16 17:30N 38°03' E 024°11'  

Dump ship's entire track history